Diablo, WA

4:33 PM PDT on May 29, 2015 (GMT -0700)
Whidbey Island Naval Air Station | | Change Station
CLOSE
Current Station
Airport
Location: Whidbey Island,
Elevation: 46 ft
Nearby Weather Stations

Elev 46 ft 48.35 °N, 122.66 °W | Updated 37 minutes ago

Partly Cloudy
Partly Cloudy
62 °F
Feels Like 62 °F
N
8
Wind Variable Wind from WSW

Today
High -- | Low -- °F
--% Chance of Precip.
Yesterday
High -- | Low -- °F
Precip. -- in
5:08 AM 8:56 PM
Waxing Gibbous, 86% visible
Pressure 29.97 in
Visibility 10.0 miles
Clouds Few 5000 ft
Few 9000 ft
Scattered Clouds 18000 ft
Scattered Clouds 25000 ft
Dew Point 59 °F
Humidity 90%
Rainfall 0.00 in
Snow Depth Not available.
UV 5 out of 12
Pollen 8.30 out of 12
Air Quality Not available.
Flu Activity Sporadic
METAR KNUW 292256Z 24007KT 10SM FEW050 FEW090 SCT180 SCT250 17/15 A2997 RMK CB DSNT E-SE SLP148 T01670150

More Conditions Fewer Conditions

Pressure 29.97 in
Visibility 10.0 miles
Clouds Few 5000 ft
Few 9000 ft
Scattered Clouds 18000 ft
Scattered Clouds 25000 ft
Dew Point 59 °F
Humidity 90%
Rainfall 0.00 in
Snow Depth Not available.
UV 5 out of 12
Pollen 8.30 out of 12
Air Quality Not available.
Flu Activity Sporadic
METAR KNUW 292256Z 24007KT 10SM FEW050 FEW090 SCT180 SCT250 17/15 A2997 RMK CB DSNT E-SE SLP148 T01670150

More Conditions Fewer Conditions

10-Day Weather Forecast

Almanac

Astronomy

May. 29, 2015 Rise Set
Actual Time
Civil Twilight
Nautical Twilight
Astronomical Twilight
Moon
Length of Visible Light
Length of Day
Tomorrow will be .
, % of the Moon is Illuminated

Today's Extremes

State Highs State Lows

Community

WunderPhotos

Upload Photos

1,825,400 photos uploaded!

WunderBlogs® & News

Nearby

Air Quality

  Air Quality AQ Index Pollutant
Not available.

Snow Depth

Station Depth Elevation

Earthquake Activity

City Distance Mag. Time & Date
Minimum magnitude displayed is 2.5.

Coastal Water Temperatures

Place Temperature

Stations

Nearby Weather Stations

Station Location Temp. Windchill Dew Point Humidity Wind Precip. Elev Updated Type